Omega, New Mexico
Current Conditions -  °F | °C
As of 8:55 AM on Friday 28 Nov 2014 (Local Time) from KJTC Reporting Station
Clear Clear  
Wind Chill: 42°   Ceiling: Unl
Heat Index: 45°   Visibility: 10mi
Dew Point:   Wind: 5mph
Humidity: 21%   Direction: 110°ESE
Pressure: 30.33"   Gusts: NA
Location:  34.3119°N, 108.79°W
Report Text: KJTC 281555Z AUTO 11004KT 10SM CLR 07/M14 A3033 RMK AO2
Loading
Personal Weather Stations






























Interactive Weather Map New forecast layout! Learn more

10-Day Weather Forecast

Advertisements
Track Severe Weather on mobile